sensor_id;sensor_type;location;lat;lon;timestamp;P1;durP1;ratioP1;P2;durP2;ratioP2
13799;SDS011;6971;50.028;9.258;2022-08-01T00:03:20;4.30;;;3.90;;
13799;SDS011;6971;50.028;9.258;2022-08-01T00:08:21;4.20;;;3.90;;
13799;SDS011;6971;50.028;9.258;2022-08-01T00:13:22;4.40;;;4.00;;
13799;SDS011;6971;50.028;9.258;2022-08-01T00:18:23;4.60;;;4.20;;
13799;SDS011;6971;50.028;9.258;2022-08-01T00:23:24;4.33;;;3.93;;
13799;SDS011;6971;50.028;9.258;2022-08-01T00:28:25;6.10;;;4.23;;
13799;SDS011;6971;50.028;9.258;2022-08-01T00:33:26;5.47;;;3.97;;
13799;SDS011;6971;50.028;9.258;2022-08-01T00:38:27;4.57;;;4.20;;
13799;SDS011;6971;50.028;9.258;2022-08-01T00:43:28;5.10;;;4.60;;
13799;SDS011;6971;50.028;9.258;2022-08-01T00:48:29;6.47;;;4.03;;
13799;SDS011;6971;50.028;9.258;2022-08-01T00:53:30;4.53;;;4.13;;
13799;SDS011;6971;50.028;9.258;2022-08-01T00:58:32;6.53;;;4.30;;
13799;SDS011;6971;50.028;9.258;2022-08-01T01:03:34;4.87;;;4.37;;
13799;SDS011;6971;50.028;9.258;2022-08-01T01:08:36;4.60;;;4.20;;
13799;SDS011;6971;50.028;9.258;2022-08-01T01:13:52;5.07;;;4.20;;
13799;SDS011;6971;50.028;9.258;2022-08-01T01:19:00;4.20;;;3.90;;
13799;SDS011;6971;50.028;9.258;2022-08-01T01:34:37;4.33;;;3.80;;
13799;SDS011;6971;50.028;9.258;2022-08-01T01:39:40;3.83;;;3.53;;
13799;SDS011;6971;50.028;9.258;2022-08-01T01:44:44;4.20;;;3.90;;
13799;SDS011;6971;50.028;9.258;2022-08-01T01:49:46;5.67;;;4.20;;
13799;SDS011;6971;50.028;9.258;2022-08-01T01:54:49;3.80;;;3.50;;
13799;SDS011;6971;50.028;9.258;2022-08-01T01:59:52;8.30;;;3.90;;
13799;SDS011;6971;50.028;9.258;2022-08-01T02:04:54;3.97;;;3.63;;
13799;SDS011;6971;50.028;9.258;2022-08-01T02:09:59;3.50;;;3.20;;
13799;SDS011;6971;50.028;9.258;2022-08-01T02:15:02;4.47;;;4.07;;
13799;SDS011;6971;50.028;9.258;2022-08-01T02:20:05;4.37;;;3.70;;
13799;SDS011;6971;50.028;9.258;2022-08-01T02:30:22;3.90;;;3.60;;
13799;SDS011;6971;50.028;9.258;2022-08-01T02:35:30;4.47;;;3.00;;
13799;SDS011;6971;50.028;9.258;2022-08-01T02:40:33;3.70;;;3.40;;
13799;SDS011;6971;50.028;9.258;2022-08-01T02:45:39;4.50;;;3.43;;
13799;SDS011;6971;50.028;9.258;2022-08-01T02:50:44;3.63;;;3.33;;
13799;SDS011;6971;50.028;9.258;2022-08-01T02:55:58;4.37;;;2.83;;
13799;SDS011;6971;50.028;9.258;2022-08-01T03:01:04;3.40;;;3.10;;
13799;SDS011;6971;50.028;9.258;2022-08-01T03:06:07;5.23;;;3.37;;
13799;SDS011;6971;50.028;9.258;2022-08-01T03:11:08;3.60;;;3.30;;
13799;SDS011;6971;50.028;9.258;2022-08-01T03:16:10;3.27;;;2.97;;
13799;SDS011;6971;50.028;9.258;2022-08-01T03:21:13;3.40;;;3.10;;
13799;SDS011;6971;50.028;9.258;2022-08-01T03:26:15;4.10;;;3.57;;
13799;SDS011;6971;50.028;9.258;2022-08-01T03:31:18;4.47;;;3.10;;
13799;SDS011;6971;50.028;9.258;2022-08-01T03:36:20;3.13;;;2.77;;
13799;SDS011;6971;50.028;9.258;2022-08-01T03:41:26;3.50;;;3.20;;
13799;SDS011;6971;50.028;9.258;2022-08-01T03:46:33;3.90;;;2.80;;
13799;SDS011;6971;50.028;9.258;2022-08-01T03:52:03;3.93;;;3.30;;
13799;SDS011;6971;50.028;9.258;2022-08-01T03:57:07;3.40;;;3.10;;
13799;SDS011;6971;50.028;9.258;2022-08-01T04:02:09;3.93;;;2.70;;
13799;SDS011;6971;50.028;9.258;2022-08-01T04:07:26;3.20;;;2.40;;
13799;SDS011;6971;50.028;9.258;2022-08-01T04:12:32;7.63;;;3.30;;
13799;SDS011;6971;50.028;9.258;2022-08-01T04:17:34;3.00;;;2.70;;
13799;SDS011;6971;50.028;9.258;2022-08-01T04:22:55;3.40;;;3.10;;
13799;SDS011;6971;50.028;9.258;2022-08-01T04:27:56;3.30;;;2.93;;
13799;SDS011;6971;50.028;9.258;2022-08-01T04:33:00;3.63;;;3.23;;
13799;SDS011;6971;50.028;9.258;2022-08-01T04:38:06;2.90;;;2.70;;
13799;SDS011;6971;50.028;9.258;2022-08-01T04:43:08;2.83;;;2.63;;
13799;SDS011;6971;50.028;9.258;2022-08-01T04:48:09;4.33;;;2.63;;
13799;SDS011;6971;50.028;9.258;2022-08-01T04:53:12;4.03;;;2.70;;
13799;SDS011;6971;50.028;9.258;2022-08-01T04:58:15;2.97;;;2.70;;
13799;SDS011;6971;50.028;9.258;2022-08-01T05:03:16;4.43;;;2.83;;
13799;SDS011;6971;50.028;9.258;2022-08-01T05:08:16;3.33;;;2.43;;
13799;SDS011;6971;50.028;9.258;2022-08-01T05:13:17;3.00;;;2.70;;
13799;SDS011;6971;50.028;9.258;2022-08-01T05:18:18;3.10;;;2.80;;
13799;SDS011;6971;50.028;9.258;2022-08-01T05:23:19;4.63;;;3.00;;
13799;SDS011;6971;50.028;9.258;2022-08-01T05:28:20;3.40;;;3.10;;
13799;SDS011;6971;50.028;9.258;2022-08-01T05:33:20;3.60;;;3.10;;
13799;SDS011;6971;50.028;9.258;2022-08-01T05:38:22;3.33;;;3.03;;
13799;SDS011;6971;50.028;9.258;2022-08-01T05:43:23;4.30;;;3.40;;
13799;SDS011;6971;50.028;9.258;2022-08-01T05:48:24;4.23;;;3.10;;
13799;SDS011;6971;50.028;9.258;2022-08-01T05:53:26;4.33;;;2.77;;
13799;SDS011;6971;50.028;9.258;2022-08-01T05:58:27;5.60;;;3.13;;
13799;SDS011;6971;50.028;9.258;2022-08-01T06:03:29;2.90;;;2.70;;
13799;SDS011;6971;50.028;9.258;2022-08-01T06:08:32;4.53;;;2.83;;
13799;SDS011;6971;50.028;9.258;2022-08-01T06:13:33;3.80;;;2.60;;
13799;SDS011;6971;50.028;9.258;2022-08-01T06:18:34;3.40;;;2.70;;
13799;SDS011;6971;50.028;9.258;2022-08-01T06:23:35;2.80;;;2.50;;
13799;SDS011;6971;50.028;9.258;2022-08-01T06:28:36;3.37;;;2.57;;
13799;SDS011;6971;50.028;9.258;2022-08-01T06:33:45;2.60;;;2.40;;
13799;SDS011;6971;50.028;9.258;2022-08-01T06:38:46;2.87;;;2.20;;
13799;SDS011;6971;50.028;9.258;2022-08-01T06:43:47;3.13;;;2.83;;
13799;SDS011;6971;50.028;9.258;2022-08-01T06:48:48;3.03;;;2.33;;
13799;SDS011;6971;50.028;9.258;2022-08-01T06:53:50;3.40;;;2.90;;
13799;SDS011;6971;50.028;9.258;2022-08-01T06:58:52;3.63;;;2.57;;
13799;SDS011;6971;50.028;9.258;2022-08-01T07:03:53;4.97;;;2.50;;
13799;SDS011;6971;50.028;9.258;2022-08-01T07:08:55;2.80;;;2.40;;
13799;SDS011;6971;50.028;9.258;2022-08-01T07:13:56;2.70;;;2.40;;
13799;SDS011;6971;50.028;9.258;2022-08-01T07:18:57;2.37;;;2.17;;
13799;SDS011;6971;50.028;9.258;2022-08-01T07:23:59;3.60;;;3.00;;
13799;SDS011;6971;50.028;9.258;2022-08-01T07:28:59;3.00;;;2.70;;
13799;SDS011;6971;50.028;9.258;2022-08-01T07:34:01;4.07;;;2.93;;
13799;SDS011;6971;50.028;9.258;2022-08-01T07:39:02;2.90;;;2.60;;
13799;SDS011;6971;50.028;9.258;2022-08-01T07:44:03;3.07;;;2.70;;
13799;SDS011;6971;50.028;9.258;2022-08-01T07:49:05;3.30;;;2.60;;
13799;SDS011;6971;50.028;9.258;2022-08-01T07:54:06;3.40;;;3.10;;
13799;SDS011;6971;50.028;9.258;2022-08-01T07:59:08;3.07;;;2.87;;
13799;SDS011;6971;50.028;9.258;2022-08-01T08:04:09;5.33;;;3.00;;
13799;SDS011;6971;50.028;9.258;2022-08-01T08:09:10;2.90;;;2.60;;
13799;SDS011;6971;50.028;9.258;2022-08-01T08:14:12;2.93;;;2.70;;
13799;SDS011;6971;50.028;9.258;2022-08-01T08:19:12;4.13;;;3.20;;
13799;SDS011;6971;50.028;9.258;2022-08-01T08:24:14;3.37;;;2.93;;
13799;SDS011;6971;50.028;9.258;2022-08-01T08:29:21;2.90;;;2.60;;
13799;SDS011;6971;50.028;9.258;2022-08-01T08:34:23;4.90;;;3.10;;
13799;SDS011;6971;50.028;9.258;2022-08-01T08:39:25;2.83;;;2.63;;
13799;SDS011;6971;50.028;9.258;2022-08-01T08:44:37;4.57;;;2.70;;
13799;SDS011;6971;50.028;9.258;2022-08-01T08:49:39;3.97;;;2.60;;
13799;SDS011;6971;50.028;9.258;2022-08-01T08:54:43;3.33;;;2.27;;
13799;SDS011;6971;50.028;9.258;2022-08-01T08:59:46;2.33;;;2.20;;
13799;SDS011;6971;50.028;9.258;2022-08-01T09:04:49;3.30;;;2.37;;
13799;SDS011;6971;50.028;9.258;2022-08-01T09:10:05;3.67;;;2.50;;
13799;SDS011;6971;50.028;9.258;2022-08-01T09:15:08;5.63;;;2.73;;
13799;SDS011;6971;50.028;9.258;2022-08-01T09:20:21;2.57;;;2.37;;
13799;SDS011;6971;50.028;9.258;2022-08-01T09:25:23;3.13;;;2.27;;
13799;SDS011;6971;50.028;9.258;2022-08-01T09:30:25;3.33;;;3.03;;
13799;SDS011;6971;50.028;9.258;2022-08-01T09:35:30;3.90;;;2.77;;
13799;SDS011;6971;50.028;9.258;2022-08-01T09:40:45;4.77;;;2.93;;
13799;SDS011;6971;50.028;9.258;2022-08-01T09:45:48;2.90;;;2.70;;
13799;SDS011;6971;50.028;9.258;2022-08-01T09:50:50;3.70;;;2.70;;
13799;SDS011;6971;50.028;9.258;2022-08-01T09:55:53;3.43;;;3.13;;
13799;SDS011;6971;50.028;9.258;2022-08-01T10:00:58;3.70;;;3.40;;
13799;SDS011;6971;50.028;9.258;2022-08-01T10:06:21;6.27;;;3.13;;
13799;SDS011;6971;50.028;9.258;2022-08-01T10:11:22;4.97;;;3.57;;
13799;SDS011;6971;50.028;9.258;2022-08-01T10:16:24;3.63;;;3.03;;
13799;SDS011;6971;50.028;9.258;2022-08-01T10:21:27;4.43;;;3.10;;
13799;SDS011;6971;50.028;9.258;2022-08-01T10:26:28;4.97;;;2.43;;
13799;SDS011;6971;50.028;9.258;2022-08-01T10:31:32;3.67;;;3.37;;
13799;SDS011;6971;50.028;9.258;2022-08-01T10:36:33;3.20;;;2.90;;
13799;SDS011;6971;50.028;9.258;2022-08-01T10:41:35;3.07;;;2.87;;
13799;SDS011;6971;50.028;9.258;2022-08-01T10:46:39;3.27;;;2.80;;
13799;SDS011;6971;50.028;9.258;2022-08-01T10:51:43;3.00;;;2.73;;
13799;SDS011;6971;50.028;9.258;2022-08-01T10:56:59;2.80;;;2.60;;
13799;SDS011;6971;50.028;9.258;2022-08-01T11:02:02;3.17;;;2.90;;
13799;SDS011;6971;50.028;9.258;2022-08-01T11:07:06;3.50;;;3.20;;
13799;SDS011;6971;50.028;9.258;2022-08-01T11:12:13;3.30;;;3.00;;
13799;SDS011;6971;50.028;9.258;2022-08-01T11:17:30;3.77;;;3.13;;
13799;SDS011;6971;50.028;9.258;2022-08-01T11:33:14;3.40;;;3.10;;
13799;SDS011;6971;50.028;9.258;2022-08-01T11:38:24;3.23;;;3.03;;
13799;SDS011;6971;50.028;9.258;2022-08-01T11:43:30;3.47;;;3.20;;
13799;SDS011;6971;50.028;9.258;2022-08-01T11:48:31;4.47;;;3.30;;
13799;SDS011;6971;50.028;9.258;2022-08-01T11:53:50;4.10;;;2.93;;
13799;SDS011;6971;50.028;9.258;2022-08-01T11:58:58;3.60;;;3.30;;
13799;SDS011;6971;50.028;9.258;2022-08-01T12:04:00;4.57;;;3.57;;
13799;SDS011;6971;50.028;9.258;2022-08-01T12:14:20;3.60;;;3.30;;
13799;SDS011;6971;50.028;9.258;2022-08-01T12:19:23;3.43;;;3.13;;
13799;SDS011;6971;50.028;9.258;2022-08-01T12:24:25;3.60;;;3.30;;
13799;SDS011;6971;50.028;9.258;2022-08-01T12:34:44;3.00;;;2.80;;
13799;SDS011;6971;50.028;9.258;2022-08-01T12:39:45;3.83;;;2.80;;
13799;SDS011;6971;50.028;9.258;2022-08-01T12:44:48;2.90;;;2.70;;
13799;SDS011;6971;50.028;9.258;2022-08-01T12:49:51;3.63;;;3.03;;
13799;SDS011;6971;50.028;9.258;2022-08-01T12:54:59;3.30;;;3.10;;
13799;SDS011;6971;50.028;9.258;2022-08-01T13:05:12;3.30;;;3.00;;
13799;SDS011;6971;50.028;9.258;2022-08-01T13:10:14;3.33;;;3.03;;
13799;SDS011;6971;50.028;9.258;2022-08-01T13:15:26;4.73;;;3.37;;
13799;SDS011;6971;50.028;9.258;2022-08-01T13:20:30;3.00;;;2.70;;
13799;SDS011;6971;50.028;9.258;2022-08-01T13:25:34;4.80;;;3.30;;
13799;SDS011;6971;50.028;9.258;2022-08-01T13:30:54;3.57;;;3.27;;
13799;SDS011;6971;50.028;9.258;2022-08-01T13:36:03;3.13;;;2.87;;
13799;SDS011;6971;50.028;9.258;2022-08-01T13:41:04;2.80;;;2.60;;
13799;SDS011;6971;50.028;9.258;2022-08-01T13:46:05;3.47;;;3.17;;
13799;SDS011;6971;50.028;9.258;2022-08-01T13:51:06;5.03;;;3.13;;
13799;SDS011;6971;50.028;9.258;2022-08-01T13:56:07;3.60;;;3.30;;
13799;SDS011;6971;50.028;9.258;2022-08-01T14:01:08;3.17;;;2.97;;
13799;SDS011;6971;50.028;9.258;2022-08-01T14:06:10;3.67;;;3.30;;
13799;SDS011;6971;50.028;9.258;2022-08-01T14:11:11;3.00;;;2.80;;
13799;SDS011;6971;50.028;9.258;2022-08-01T14:16:12;2.90;;;2.70;;
13799;SDS011;6971;50.028;9.258;2022-08-01T14:21:13;2.90;;;2.70;;
13799;SDS011;6971;50.028;9.258;2022-08-01T14:26:16;2.80;;;2.60;;
13799;SDS011;6971;50.028;9.258;2022-08-01T14:31:17;4.37;;;3.30;;
13799;SDS011;6971;50.028;9.258;2022-08-01T14:36:17;3.17;;;2.63;;
13799;SDS011;6971;50.028;9.258;2022-08-01T14:41:19;4.50;;;2.90;;
13799;SDS011;6971;50.028;9.258;2022-08-01T14:46:20;3.60;;;3.30;;
13799;SDS011;6971;50.028;9.258;2022-08-01T14:51:21;3.80;;;3.40;;
13799;SDS011;6971;50.028;9.258;2022-08-01T14:56:22;3.50;;;3.30;;
13799;SDS011;6971;50.028;9.258;2022-08-01T15:01:23;3.33;;;3.03;;
13799;SDS011;6971;50.028;9.258;2022-08-01T15:06:24;3.13;;;2.77;;
13799;SDS011;6971;50.028;9.258;2022-08-01T15:11:25;3.50;;;2.90;;
13799;SDS011;6971;50.028;9.258;2022-08-01T15:16:26;6.93;;;3.40;;
13799;SDS011;6971;50.028;9.258;2022-08-01T15:21:27;3.40;;;3.10;;
13799;SDS011;6971;50.028;9.258;2022-08-01T15:26:38;3.27;;;2.90;;
13799;SDS011;6971;50.028;9.258;2022-08-01T15:31:39;3.87;;;3.13;;
13799;SDS011;6971;50.028;9.258;2022-08-01T15:36:39;3.20;;;2.90;;
13799;SDS011;6971;50.028;9.258;2022-08-01T15:41:40;3.27;;;2.97;;
13799;SDS011;6971;50.028;9.258;2022-08-01T15:46:41;4.87;;;3.40;;
13799;SDS011;6971;50.028;9.258;2022-08-01T15:51:42;2.77;;;2.57;;
13799;SDS011;6971;50.028;9.258;2022-08-01T15:56:44;4.33;;;4.03;;
13799;SDS011;6971;50.028;9.258;2022-08-01T16:01:46;7.17;;;4.50;;
13799;SDS011;6971;50.028;9.258;2022-08-01T16:06:49;4.97;;;4.47;;
13799;SDS011;6971;50.028;9.258;2022-08-01T16:12:02;4.53;;;4.13;;
13799;SDS011;6971;50.028;9.258;2022-08-01T16:17:03;4.20;;;3.80;;
13799;SDS011;6971;50.028;9.258;2022-08-01T16:22:05;4.43;;;4.13;;
13799;SDS011;6971;50.028;9.258;2022-08-01T16:27:06;4.27;;;3.33;;
13799;SDS011;6971;50.028;9.258;2022-08-01T16:32:07;3.93;;;3.33;;
13799;SDS011;6971;50.028;9.258;2022-08-01T16:37:08;4.47;;;3.40;;
13799;SDS011;6971;50.028;9.258;2022-08-01T16:42:09;4.37;;;3.50;;
13799;SDS011;6971;50.028;9.258;2022-08-01T16:47:09;3.60;;;3.30;;
13799;SDS011;6971;50.028;9.258;2022-08-01T16:52:10;3.90;;;3.60;;
13799;SDS011;6971;50.028;9.258;2022-08-01T16:57:11;4.00;;;3.70;;
13799;SDS011;6971;50.028;9.258;2022-08-01T17:02:12;3.90;;;3.50;;
13799;SDS011;6971;50.028;9.258;2022-08-01T17:07:13;5.50;;;3.80;;
13799;SDS011;6971;50.028;9.258;2022-08-01T17:12:14;4.83;;;4.30;;
13799;SDS011;6971;50.028;9.258;2022-08-01T17:17:14;3.80;;;3.50;;
13799;SDS011;6971;50.028;9.258;2022-08-01T17:22:15;4.20;;;3.80;;
13799;SDS011;6971;50.028;9.258;2022-08-01T17:27:17;4.00;;;3.63;;
13799;SDS011;6971;50.028;9.258;2022-08-01T17:32:19;4.87;;;4.17;;
13799;SDS011;6971;50.028;9.258;2022-08-01T17:37:20;4.40;;;4.00;;
13799;SDS011;6971;50.028;9.258;2022-08-01T17:42:21;4.27;;;3.97;;
13799;SDS011;6971;50.028;9.258;2022-08-01T17:47:25;5.40;;;3.80;;
13799;SDS011;6971;50.028;9.258;2022-08-01T17:52:26;5.20;;;4.20;;
13799;SDS011;6971;50.028;9.258;2022-08-01T17:57:27;4.27;;;3.97;;
13799;SDS011;6971;50.028;9.258;2022-08-01T18:02:28;4.77;;;4.37;;
13799;SDS011;6971;50.028;9.258;2022-08-01T18:07:28;4.13;;;3.83;;
13799;SDS011;6971;50.028;9.258;2022-08-01T18:12:29;4.37;;;3.97;;
13799;SDS011;6971;50.028;9.258;2022-08-01T18:17:31;4.57;;;4.17;;
13799;SDS011;6971;50.028;9.258;2022-08-01T18:22:45;4.77;;;4.37;;
13799;SDS011;6971;50.028;9.258;2022-08-01T18:27:46;3.87;;;3.53;;
13799;SDS011;6971;50.028;9.258;2022-08-01T18:32:47;3.67;;;3.37;;
13799;SDS011;6971;50.028;9.258;2022-08-01T18:37:48;4.03;;;3.67;;
13799;SDS011;6971;50.028;9.258;2022-08-01T18:42:50;4.20;;;3.90;;
13799;SDS011;6971;50.028;9.258;2022-08-01T18:48:05;4.40;;;4.00;;
13799;SDS011;6971;50.028;9.258;2022-08-01T18:53:06;4.97;;;3.87;;
13799;SDS011;6971;50.028;9.258;2022-08-01T18:58:09;4.20;;;3.80;;
13799;SDS011;6971;50.028;9.258;2022-08-01T19:03:10;5.20;;;4.80;;
13799;SDS011;6971;50.028;9.258;2022-08-01T19:08:13;5.33;;;3.67;;
13799;SDS011;6971;50.028;9.258;2022-08-01T19:13:14;4.80;;;4.40;;
13799;SDS011;6971;50.028;9.258;2022-08-01T19:18:16;4.63;;;4.33;;
13799;SDS011;6971;50.028;9.258;2022-08-01T19:23:17;4.93;;;4.53;;
13799;SDS011;6971;50.028;9.258;2022-08-01T19:28:42;7.67;;;7.00;;
13799;SDS011;6971;50.028;9.258;2022-08-01T19:33:45;11.50;;;10.30;;
13799;SDS011;6971;50.028;9.258;2022-08-01T19:38:47;5.80;;;5.17;;
13799;SDS011;6971;50.028;9.258;2022-08-01T19:43:58;5.87;;;5.37;;
13799;SDS011;6971;50.028;9.258;2022-08-01T19:49:03;5.77;;;4.77;;
13799;SDS011;6971;50.028;9.258;2022-08-01T19:54:05;6.10;;;5.50;;
13799;SDS011;6971;50.028;9.258;2022-08-01T19:59:06;5.50;;;5.07;;
13799;SDS011;6971;50.028;9.258;2022-08-01T20:04:07;7.37;;;5.67;;
13799;SDS011;6971;50.028;9.258;2022-08-01T20:09:19;5.77;;;5.33;;
13799;SDS011;6971;50.028;9.258;2022-08-01T20:14:21;6.30;;;5.47;;
13799;SDS011;6971;50.028;9.258;2022-08-01T20:19:24;6.23;;;5.63;;
13799;SDS011;6971;50.028;9.258;2022-08-01T20:24:26;6.07;;;5.57;;
13799;SDS011;6971;50.028;9.258;2022-08-01T20:29:28;6.07;;;5.57;;
13799;SDS011;6971;50.028;9.258;2022-08-01T20:34:44;7.20;;;6.13;;
13799;SDS011;6971;50.028;9.258;2022-08-01T20:39:45;8.63;;;7.83;;
13799;SDS011;6971;50.028;9.258;2022-08-01T20:44:47;6.90;;;6.23;;
13799;SDS011;6971;50.028;9.258;2022-08-01T20:49:51;6.63;;;6.13;;
13799;SDS011;6971;50.028;9.258;2022-08-01T20:54:52;7.07;;;6.47;;
13799;SDS011;6971;50.028;9.258;2022-08-01T21:00:01;6.90;;;6.30;;
13799;SDS011;6971;50.028;9.258;2022-08-01T21:05:07;6.97;;;6.47;;
13799;SDS011;6971;50.028;9.258;2022-08-01T21:10:11;7.10;;;6.50;;
13799;SDS011;6971;50.028;9.258;2022-08-01T21:15:27;7.07;;;6.30;;
13799;SDS011;6971;50.028;9.258;2022-08-01T21:20:32;6.67;;;6.07;;
13799;SDS011;6971;50.028;9.258;2022-08-01T21:25:53;8.37;;;6.90;;
13799;SDS011;6971;50.028;9.258;2022-08-01T21:31:00;7.27;;;6.67;;
13799;SDS011;6971;50.028;9.258;2022-08-01T21:36:03;7.10;;;6.50;;
13799;SDS011;6971;50.028;9.258;2022-08-01T21:41:06;10.00;;;7.73;;
13799;SDS011;6971;50.028;9.258;2022-08-01T21:46:09;6.83;;;6.33;;
13799;SDS011;6971;50.028;9.258;2022-08-01T22:02:00;8.70;;;7.90;;
13799;SDS011;6971;50.028;9.258;2022-08-01T22:07:04;7.73;;;7.03;;
13799;SDS011;6971;50.028;9.258;2022-08-01T22:12:09;7.03;;;6.43;;
13799;SDS011;6971;50.028;9.258;2022-08-01T22:17:22;7.00;;;6.40;;
13799;SDS011;6971;50.028;9.258;2022-08-01T22:22:24;6.80;;;6.20;;
13799;SDS011;6971;50.028;9.258;2022-08-01T22:27:45;7.00;;;6.40;;
13799;SDS011;6971;50.028;9.258;2022-08-01T22:32:46;6.17;;;5.67;;
13799;SDS011;6971;50.028;9.258;2022-08-01T22:37:47;6.37;;;5.83;;
13799;SDS011;6971;50.028;9.258;2022-08-01T22:42:50;6.83;;;5.77;;
13799;SDS011;6971;50.028;9.258;2022-08-01T22:58:42;7.80;;;4.93;;
13799;SDS011;6971;50.028;9.258;2022-08-01T23:03:43;5.93;;;5.40;;
13799;SDS011;6971;50.028;9.258;2022-08-01T23:08:46;5.63;;;5.17;;
13799;SDS011;6971;50.028;9.258;2022-08-01T23:13:50;5.20;;;4.80;;
13799;SDS011;6971;50.028;9.258;2022-08-01T23:18:51;5.00;;;4.60;;
13799;SDS011;6971;50.028;9.258;2022-08-01T23:23:54;4.70;;;4.30;;
13799;SDS011;6971;50.028;9.258;2022-08-01T23:28:57;5.23;;;4.83;;
13799;SDS011;6971;50.028;9.258;2022-08-01T23:33:58;5.53;;;5.07;;
13799;SDS011;6971;50.028;9.258;2022-08-01T23:38:59;5.63;;;5.03;;
13799;SDS011;6971;50.028;9.258;2022-08-01T23:44:00;4.90;;;4.40;;
13799;SDS011;6971;50.028;9.258;2022-08-01T23:49:01;4.30;;;4.00;;
13799;SDS011;6971;50.028;9.258;2022-08-01T23:54:03;4.70;;;4.10;;
13799;SDS011;6971;50.028;9.258;2022-08-01T23:59:04;5.03;;;4.63;;
